Aviation Digital Data Service (ADDS)

Output produced by METARs form (0557 UTC 26 October 2014)
found at http://aviationweather.gov/adds/metars/
 
KPVD 260533Z 2606/2706 26009KT P6SM BKN080 
     FM261000 27008KT P6SM SCT250 
     FM261800 29012KT P6SM BKN080 
     FM270000 29008KT P6SM FEW250